Time;durP1;ratioP1;P1;durP2;ratioP2;P2;SDS_P1;SDS_P2;PMS_P1;PMS_P2;Temp;Humidity;BMP_temperature;BMP_pressure;BME280_temperature;BME280_humidity;BME280_pressure;Samples;Min_cycle;Max_cycle;Signal;HPM_P1;HPM_P2
2022/12/04 00:01:24;;;;;;;37.57;14.23;;;1.90;74.70;;;;;;5070460;28;20178;-70
2022/12/04 00:03:53;;;;;;;37.28;14.05;;;1.90;74.40;;;;;;5069388;28;20315;-70
2022/12/04 00:06:22;;;;;;;39.90;14.68;;;1.90;74.40;;;;;;5070055;28;20112;-70
2022/12/04 00:08:49;;;;;;;40.63;14.52;;;2.00;74.40;;;;;;5068553;28;20044;-70
2022/12/04 00:11:19;;;;;;;37.13;13.50;;;1.90;74.40;;;;;;5068806;28;20104;-70
2022/12/04 00:13:45;;;;;;;38.40;14.37;;;2.00;74.40;;;;;;5070318;28;20140;-70
2022/12/04 00:16:15;;;;;;;38.45;13.70;;;2.00;74.30;;;;;;5094380;22;20259;-72
2022/12/04 00:18:44;;;;;;;40.63;14.20;;;2.00;74.30;;;;;;5011773;28;20050;-70
2022/12/04 00:21:14;;;;;;;36.95;13.48;;;2.00;74.30;;;;;;5030174;28;20058;-70
2022/12/04 00:23:41;;;;;;;36.58;14.27;;;2.00;74.80;;;;;;5011897;28;20578;-70
2022/12/04 00:26:10;;;;;;;33.27;13.23;;;2.00;74.60;;;;;;5012323;28;20045;-70
2022/12/04 00:28:38;;;;;;;37.83;13.57;;;2.10;74.70;;;;;;5012391;28;20646;-70
2022/12/04 00:31:08;;;;;;;39.72;13.38;;;2.10;74.50;;;;;;5011809;28;20485;-70
2022/12/04 00:33:35;;;;;;;36.65;13.55;;;2.10;74.30;;;;;;5010325;28;20050;-70
2022/12/04 00:36:05;;;;;;;38.08;14.23;;;2.00;74.10;;;;;;5012011;28;20140;-70
2022/12/04 00:38:32;;;;;;;36.13;13.87;;;2.00;74.10;;;;;;5012138;28;20113;-70
2022/12/04 00:41:00;;;;;;;37.20;13.27;;;2.00;74.10;;;;;;5011611;28;20754;-70
2022/12/04 00:43:29;;;;;;;35.22;13.45;;;2.00;74.20;;;;;;5011672;28;20050;-70
2022/12/04 00:45:56;;;;;;;37.55;13.88;;;2.00;74.30;;;;;;5032607;28;20140;-70
2022/12/04 00:48:23;;;;;;;42.88;14.93;;;1.90;74.40;;;;;;5015496;28;20133;-70
2022/12/04 00:50:50;;;;;;;35.37;13.07;;;2.00;74.80;;;;;;4997339;28;20104;-70
2022/12/04 00:53:19;;;;;;;37.67;13.85;;;2.00;75.00;;;;;;5015289;28;20289;-70
2022/12/04 00:55:46;;;;;;;42.05;13.73;;;2.00;74.60;;;;;;5033204;28;20336;-69
2022/12/04 00:58:13;;;;;;;36.45;14.15;;;2.00;74.40;;;;;;5036847;28;20080;-70
2022/12/04 01:00:42;;;;;;;37.42;13.60;;;2.00;74.30;;;;;;5032429;28;20136;-70
2022/12/04 01:03:10;;;;;;;43.27;15.13;;;2.00;74.50;;;;;;4998777;28;20042;-70
2022/12/04 01:05:39;;;;;;;37.30;12.40;;;2.00;74.80;;;;;;5014890;28;20307;-70
2022/12/04 01:08:06;;;;;;;36.90;14.07;;;2.00;74.60;;;;;;5032472;28;20041;-70
2022/12/04 01:10:35;;;;;;;39.70;15.57;;;2.00;74.40;;;;;;5023799;28;20193;-70
2022/12/04 01:13:02;;;;;;;39.72;14.13;;;2.00;74.40;;;;;;5015058;28;20060;-70
2022/12/04 01:15:29;;;;;;;41.67;15.30;;;2.00;74.70;;;;;;5015040;28;20438;-70
2022/12/04 01:17:56;;;;;;;37.55;14.27;;;2.00;74.80;;;;;;5015021;28;20791;-70
2022/12/04 01:20:23;;;;;;;39.65;13.68;;;2.00;74.50;;;;;;5022703;28;20042;-70
2022/12/04 01:22:50;;;;;;;34.85;13.02;;;2.00;74.70;;;;;;5013348;28;20565;-69
2022/12/04 01:25:17;;;;;;;40.03;14.63;;;2.00;74.90;;;;;;5040707;28;20501;-70
2022/12/04 01:27:45;;;;;;;36.03;13.07;;;2.00;75.30;;;;;;5035090;28;20465;-70
2022/12/04 01:30:13;;;;;;;38.03;13.90;;;2.00;74.80;;;;;;5020480;28;20254;-70
2022/12/04 01:32:40;;;;;;;37.33;13.88;;;2.00;74.70;;;;;;5032231;28;20053;-70
2022/12/04 01:35:07;;;;;;;32.15;13.05;;;2.00;74.60;;;;;;5032426;28;20060;-70
2022/12/04 01:37:34;;;;;;;39.17;13.75;;;2.00;74.70;;;;;;5033006;28;20094;-70
2022/12/04 01:40:02;;;;;;;37.57;13.77;;;2.00;74.60;;;;;;5031837;28;20515;-70
2022/12/04 01:42:28;;;;;;;37.30;14.00;;;2.00;74.40;;;;;;5012965;28;20269;-70
2022/12/04 01:45:34;;;;;;;38.38;13.90;;;2.00;74.70;;;;;;5014659;28;20589;-70
2022/12/04 01:48:08;;;;;;;45.78;15.25;;;2.00;74.90;;;;;;5032918;28;20050;-70
2022/12/04 01:50:36;;;;;;;39.03;14.50;;;2.00;74.90;;;;;;5032254;28;20140;-70
2022/12/04 01:53:03;;;;;;;38.20;14.30;;;2.00;74.70;;;;;;5032551;28;20137;-70
2022/12/04 01:55:31;;;;;;;40.90;15.85;;;2.00;74.70;;;;;;5013894;28;20246;-70
2022/12/04 01:57:58;;;;;;;42.35;15.00;;;2.00;74.50;;;;;;5033052;28;20034;-70
2022/12/04 02:00:25;;;;;;;35.20;14.02;;;2.00;74.60;;;;;;4997441;28;20129;-70
2022/12/04 02:02:54;;;;;;;36.13;14.00;;;2.00;74.70;;;;;;5031992;28;20105;-70
2022/12/04 02:05:22;;;;;;;35.57;13.03;;;2.00;74.70;;;;;;5014335;28;20137;-70
2022/12/04 02:07:52;;;;;;;43.08;15.85;;;2.00;75.10;;;;;;5032433;28;20257;-70
2022/12/04 02:10:23;;;;;;;40.90;14.70;;;2.00;75.00;;;;;;5012065;28;20532;-70
2022/12/04 02:13:00;;;;;;;41.88;16.73;;;2.00;74.60;;;;;;4994253;28;20137;-70
2022/12/04 02:15:33;;;;;;;44.85;17.52;;;2.00;74.80;;;;;;5036194;22;20065;-70
2022/12/04 02:18:09;;;;;;;39.63;15.10;;;2.00;75.00;;;;;;5114132;27;20056;-69
2022/12/04 02:20:42;;;;;;;39.78;14.30;;;2.00;74.70;;;;;;5073686;28;20839;-69
2022/12/04 02:23:26;;;;;;;42.92;14.80;;;2.00;74.50;;;;;;5092179;28;20053;-70
2022/12/04 02:26:01;;;;;;;37.85;14.38;;;1.90;74.40;;;;;;5073770;28;20524;-70
2022/12/04 02:28:34;;;;;;;39.50;14.77;;;1.90;74.30;;;;;;5056366;28;20974;-70
2022/12/04 02:31:04;;;;;;;37.83;14.63;;;1.90;74.40;;;;;;5091742;28;20106;-70
2022/12/04 02:33:37;;;;;;;34.40;13.60;;;1.80;75.00;;;;;;5071872;28;20267;-70
2022/12/04 02:36:10;;;;;;;41.95;14.23;;;1.80;74.90;;;;;;5091922;28;20185;-69
2022/12/04 02:38:40;;;;;;;39.63;15.20;;;1.80;74.80;;;;;;5073666;28;20134;-70
2022/12/04 02:41:12;;;;;;;40.85;14.60;;;1.80;74.90;;;;;;5091870;28;20114;-69
2022/12/04 02:43:45;;;;;;;39.27;14.10;;;1.80;75.10;;;;;;5086996;28;20058;-70
2022/12/04 02:46:17;;;;;;;39.55;14.48;;;1.80;75.40;;;;;;5077054;28;20292;-70
2022/12/04 02:48:48;;;;;;;36.70;14.57;;;1.80;75.20;;;;;;5099858;28;20048;-70
2022/12/04 02:51:19;;;;;;;39.28;14.40;;;1.80;75.10;;;;;;5090093;28;20114;-70
2022/12/04 02:53:53;;;;;;;40.20;14.73;;;1.80;75.50;;;;;;5081173;28;20052;-70
2022/12/04 02:56:26;;;;;;;44.83;16.13;;;1.80;75.70;;;;;;5073561;28;20153;-70
2022/12/04 02:58:57;;;;;;;36.95;14.55;;;1.80;75.40;;;;;;5078998;28;20251;-70
2022/12/04 03:01:29;;;;;;;41.20;14.20;;;1.80;75.20;;;;;;5111845;28;20052;-70
2022/12/04 03:04:01;;;;;;;37.13;15.25;;;1.80;75.30;;;;;;5111892;28;20058;-70
2022/12/04 03:06:32;;;;;;;39.13;15.48;;;1.80;75.20;;;;;;5110470;28;20048;-70
2022/12/04 03:09:06;;;;;;;35.87;13.50;;;1.80;75.30;;;;;;5072033;28;20132;-70
2022/12/04 03:11:37;;;;;;;40.10;15.32;;;1.80;75.40;;;;;;5072691;28;20244;-70
2022/12/04 03:14:11;;;;;;;41.58;14.75;;;1.80;75.40;;;;;;5091194;28;20056;-69
2022/12/04 03:16:41;;;;;;;43.20;15.27;;;1.80;75.60;;;;;;5092237;28;20056;-70
2022/12/04 03:19:14;;;;;;;39.22;14.82;;;1.80;76.10;;;;;;5111739;28;20052;-70
2022/12/04 03:21:46;;;;;;;41.27;15.87;;;1.90;75.80;;;;;;5110990;28;20138;-70
2022/12/04 03:24:19;;;;;;;40.47;15.32;;;1.90;75.50;;;;;;5076338;28;20703;-70
2022/12/04 03:26:50;;;;;;;41.05;15.68;;;1.80;75.40;;;;;;5109842;28;20056;-70
2022/12/04 03:29:22;;;;;;;37.08;14.48;;;1.80;75.40;;;;;;5072338;28;20526;-70
2022/12/04 03:31:52;;;;;;;40.63;15.23;;;1.80;75.60;;;;;;5074930;28;20140;-70
2022/12/04 03:34:26;;;;;;;38.87;14.03;;;1.80;75.60;;;;;;5092213;28;20060;-70
2022/12/04 03:36:57;;;;;;;40.25;14.82;;;1.80;75.60;;;;;;5055579;28;20235;-69
2022/12/04 03:39:30;;;;;;;40.17;14.52;;;1.80;75.80;;;;;;5089359;28;20068;-70
2022/12/04 03:42:01;;;;;;;47.78;16.95;;;1.80;75.90;;;;;;5089316;28;20056;-70
2022/12/04 03:44:38;;;;;;;43.08;15.48;;;1.80;76.40;;;;;;5089299;28;20056;-70
2022/12/04 03:47:08;;;;;;;39.13;15.13;;;1.90;76.50;;;;;;5082145;28;20616;-70
2022/12/04 03:49:42;;;;;;;43.55;16.45;;;1.90;76.30;;;;;;5072140;28;20263;-70
2022/12/04 03:52:16;;;;;;;40.67;15.60;;;2.00;76.50;;;;;;5055078;28;20134;-70
2022/12/04 03:54:48;;;;;;;39.17;14.98;;;2.00;76.10;;;;;;5072131;28;20079;-71
2022/12/04 03:57:20;;;;;;;38.45;14.50;;;2.00;76.10;;;;;;5072044;28;20141;-70
2022/12/04 03:59:54;;;;;;;43.03;15.37;;;2.00;76.10;;;;;;5070638;28;20589;-70
2022/12/04 04:02:24;;;;;;;42.50;15.38;;;2.00;75.70;;;;;;5090483;28;20291;-70
2022/12/04 04:04:55;;;;;;;39.15;14.60;;;2.00;75.50;;;;;;5089329;28;20102;-69
2022/12/04 04:07:27;;;;;;;44.50;16.40;;;2.00;75.50;;;;;;5090813;28;20110;-70
2022/12/04 04:10:03;;;;;;;44.10;16.75;;;2.00;75.40;;;;;;5092037;28;20497;-70
2022/12/04 04:12:36;;;;;;;44.20;16.03;;;2.00;75.40;;;;;;5062621;28;20107;-70
2022/12/04 04:26:42;;;;;;;42.40;16.10;;;2.00;75.80;;;;;;5090769;28;20536;-69
2022/12/04 04:29:09;;;;;;;46.42;16.55;;;2.00;75.90;;;;;;5091951;28;20294;-70
2022/12/04 04:31:42;;;;;;;47.40;18.23;;;2.00;75.80;;;;;;5098300;28;20507;-70
2022/12/04 04:34:18;;;;;;;45.65;16.92;;;2.00;75.90;;;;;;5073854;28;20057;-70
2022/12/04 04:36:53;;;;;;;46.15;16.70;;;2.00;75.40;;;;;;5080860;28;20052;-70
2022/12/04 04:39:30;;;;;;;41.83;16.20;;;2.00;75.50;;;;;;5071485;28;20123;-70
2022/12/04 04:42:03;;;;;;;42.97;16.75;;;2.00;75.50;;;;;;5095499;28;20256;-70
2022/12/04 04:44:36;;;;;;;45.20;16.88;;;2.00;75.30;;;;;;5071850;28;20056;-70
2022/12/04 04:47:11;;;;;;;43.58;16.95;;;2.00;75.30;;;;;;5071878;28;20052;-70
2022/12/04 04:49:41;;;;;;;47.15;17.48;;;1.90;75.30;;;;;;5087971;28;20623;-70
2022/12/04 04:52:09;;;;;;;44.67;16.33;;;1.90;75.70;;;;;;5072091;28;20048;-70
2022/12/04 04:54:38;;;;;;;46.03;17.05;;;1.90;75.50;;;;;;5072127;28;20283;-70
2022/12/04 04:57:05;;;;;;;47.38;17.00;;;1.90;75.50;;;;;;5110306;28;20561;-70
2022/12/04 04:59:33;;;;;;;46.83;17.13;;;1.90;75.20;;;;;;5109695;28;20135;-69
2022/12/04 05:02:00;;;;;;;44.20;17.48;;;1.90;75.40;;;;;;5091826;28;20579;-70
2022/12/04 05:04:28;;;;;;;44.20;17.27;;;1.90;75.90;;;;;;5091845;28;20050;-69
2022/12/04 05:06:55;;;;;;;39.97;16.25;;;1.90;76.30;;;;;;5106075;28;21020;-70
2022/12/04 05:09:22;;;;;;;45.17;15.75;;;1.90;76.00;;;;;;5071219;28;20059;-69
2022/12/04 05:11:50;;;;;;;47.35;15.93;;;1.90;75.90;;;;;;5108082;28;20078;-70
2022/12/04 05:14:18;;;;;;;51.00;17.48;;;2.00;75.90;;;;;;5091531;28;20135;-70
2022/12/04 05:16:45;;;;;;;40.40;14.53;;;1.90;75.50;;;;;;5073981;28;20609;-70
2022/12/04 05:22:04;;;;;;;43.40;16.23;;;1.90;75.30;;;;;;5072203;28;20152;-69
2022/12/04 05:24:31;;;;;;;47.97;16.60;;;1.80;75.40;;;;;;5088094;28;20152;-69
2022/12/04 05:26:58;;;;;;;44.33;16.40;;;1.80;75.50;;;;;;5070947;28;20054;-70
2022/12/04 05:29:25;;;;;;;45.13;16.60;;;1.80;75.40;;;;;;5076321;28;20079;-70
2022/12/04 05:31:53;;;;;;;45.10;16.30;;;1.80;75.50;;;;;;5112289;27;20601;-70
2022/12/04 05:34:20;;;;;;;41.60;15.48;;;1.80;75.50;;;;;;5076522;28;20054;-70
2022/12/04 05:36:48;;;;;;;43.47;16.27;;;1.70;75.60;;;;;;5074836;28;20048;-70
2022/12/04 05:39:17;;;;;;;44.92;16.95;;;1.70;75.80;;;;;;5092287;28;20066;-70
2022/12/04 05:41:45;;;;;;;43.77;15.73;;;1.70;76.00;;;;;;5089669;28;20052;-70
2022/12/04 05:44:12;;;;;;;43.53;16.70;;;1.80;75.90;;;;;;5091291;28;20342;-70
2022/12/04 05:46:39;;;;;;;45.53;17.63;;;1.80;76.00;;;;;;5074371;28;20045;-70
2022/12/04 05:49:06;;;;;;;40.05;15.18;;;1.80;76.10;;;;;;5092402;28;20603;-70
2022/12/04 05:51:33;;;;;;;40.67;16.10;;;1.80;76.30;;;;;;5092522;28;20049;-70
2022/12/04 05:54:00;;;;;;;39.57;15.30;;;1.80;76.30;;;;;;5074590;28;20041;-69
2022/12/04 05:56:29;;;;;;;39.78;16.13;;;1.90;76.40;;;;;;5094787;28;20273;-70
2022/12/04 05:58:56;;;;;;;43.08;16.20;;;1.90;76.20;;;;;;5102488;28;20052;-70
2022/12/04 06:01:24;;;;;;;42.85;16.33;;;1.90;76.50;;;;;;5092289;28;20133;-70
2022/12/04 06:03:51;;;;;;;45.13;16.05;;;1.90;76.50;;;;;;5081223;28;20054;-70
2022/12/04 06:06:19;;;;;;;37.90;14.60;;;1.90;76.60;;;;;;5094619;28;20512;-69
2022/12/04 06:08:47;;;;;;;40.20;15.18;;;1.90;76.30;;;;;;5097611;28;20243;-70
2022/12/04 06:11:16;;;;;;;44.80;15.85;;;1.90;76.10;;;;;;5112470;28;20044;-70
2022/12/04 06:13:46;;;;;;;36.67;13.48;;;1.90;76.10;;;;;;5088187;28;20143;-70
2022/12/04 06:16:14;;;;;;;40.60;15.38;;;1.90;76.10;;;;;;5090496;28;20055;-70
2022/12/04 06:18:42;;;;;;;45.27;17.20;;;1.90;76.10;;;;;;5092377;28;20079;-70
2022/12/04 06:21:09;;;;;;;41.40;16.85;;;1.80;76.00;;;;;;5073974;28;20259;-70
2022/12/04 06:23:36;;;;;;;42.92;15.02;;;1.80;76.00;;;;;;5078129;28;20060;-69
2022/12/04 06:26:05;;;;;;;39.00;14.88;;;1.80;76.50;;;;;;5112788;28;20422;-70
2022/12/04 06:28:32;;;;;;;39.08;14.95;;;1.80;76.50;;;;;;5110780;28;20050;-70
2022/12/04 06:31:03;;;;;;;42.20;14.97;;;1.80;76.30;;;;;;5093752;28;20899;-70
2022/12/04 06:33:31;;;;;;;42.90;15.20;;;1.80;76.50;;;;;;5082602;28;20761;-70
2022/12/04 06:36:00;;;;;;;41.50;15.27;;;1.80;76.60;;;;;;5092052;28;20053;-70
2022/12/04 06:38:27;;;;;;;38.45;14.98;;;1.90;76.90;;;;;;5092054;28;20049;-70
2022/12/04 06:40:54;;;;;;;41.70;14.77;;;1.90;76.90;;;;;;5073105;28;20063;-70
2022/12/04 06:43:21;;;;;;;40.97;15.80;;;1.90;76.80;;;;;;5092284;28;20075;-70
2022/12/04 06:45:48;;;;;;;37.13;14.25;;;2.00;77.00;;;;;;5093867;28;20362;-70
2022/12/04 06:48:17;;;;;;;39.72;15.55;;;2.00;76.70;;;;;;5086156;28;20052;-70
2022/12/04 06:50:44;;;;;;;39.13;14.20;;;2.00;76.60;;;;;;5091231;28;20565;-70
2022/12/04 06:53:11;;;;;;;41.13;15.88;;;2.00;76.50;;;;;;5086682;28;20228;-70
2022/12/04 06:55:39;;;;;;;38.47;14.30;;;2.00;76.40;;;;;;5055685;28;20052;-70
2022/12/04 06:58:06;;;;;;;38.95;15.15;;;2.00;76.70;;;;;;5072788;28;20355;-70
2022/12/04 07:00:34;;;;;;;36.17;14.82;;;2.00;76.40;;;;;;5072940;28;20355;-70
2022/12/04 07:03:01;;;;;;;40.60;15.52;;;2.00;76.50;;;;;;5073326;28;20945;-70
2022/12/04 07:05:29;;;;;;;43.58;15.65;;;2.00;76.30;;;;;;5091273;28;20091;-70
2022/12/04 07:07:57;;;;;;;38.50;14.77;;;2.00;76.50;;;;;;5071348;28;20059;-70
2022/12/04 07:10:23;;;;;;;38.33;14.50;;;2.10;76.80;;;;;;5091145;28;20307;-70
2022/12/04 07:12:50;;;;;;;45.17;15.38;;;2.10;77.00;;;;;;5072511;28;20049;-70
2022/12/04 07:15:18;;;;;;;45.65;14.73;;;2.10;76.70;;;;;;5090959;28;20148;-69
2022/12/04 07:17:45;;;;;;;43.22;16.08;;;2.10;76.80;;;;;;5090887;28;20075;-70
2022/12/04 07:20:13;;;;;;;38.90;14.77;;;2.10;76.70;;;;;;5090858;28;20498;-70
2022/12/04 07:22:41;;;;;;;43.17;15.93;;;2.10;76.70;;;;;;5090948;28;20347;-70
2022/12/04 07:25:09;;;;;;;39.10;15.50;;;2.20;76.80;;;;;;5089554;28;20075;-70
2022/12/04 07:27:36;;;;;;;41.08;14.35;;;2.20;76.80;;;;;;5091204;28;20060;-70
2022/12/04 07:30:05;;;;;;;40.17;15.00;;;2.20;76.90;;;;;;5089416;28;20044;-70
2022/12/04 07:32:31;;;;;;;39.20;15.57;;;2.20;76.80;;;;;;5090801;28;20139;-69
2022/12/04 07:34:58;;;;;;;36.75;14.80;;;2.20;76.60;;;;;;5072226;28;20276;-70
2022/12/04 07:37:25;;;;;;;38.53;14.10;;;2.20;76.90;;;;;;5075986;28;20079;-70
2022/12/04 07:39:54;;;;;;;36.97;15.13;;;2.20;76.90;;;;;;5111079;28;20062;-70
2022/12/04 07:42:21;;;;;;;40.00;15.40;;;2.20;77.00;;;;;;5097368;28;20128;-70
2022/12/04 07:44:48;;;;;;;42.83;16.27;;;2.20;76.90;;;;;;5090714;28;20068;-70
2022/12/04 07:47:15;;;;;;;40.25;15.13;;;2.20;76.90;;;;;;5088336;28;20253;-70
2022/12/04 07:49:42;;;;;;;42.70;16.05;;;2.20;77.10;;;;;;5092236;28;20051;-69
2022/12/04 07:52:09;;;;;;;40.70;15.40;;;2.20;77.10;;;;;;5082338;28;20590;-70
2022/12/04 07:54:36;;;;;;;40.70;15.40;;;2.30;77.10;;;;;;5071929;28;20128;-71
2022/12/04 07:57:05;;;;;;;42.90;15.43;;;2.30;77.30;;;;;;5072240;28;20044;-70
2022/12/04 07:59:32;;;;;;;39.90;15.15;;;2.30;77.30;;;;;;5089516;28;20808;-70
2022/12/04 08:01:59;;;;;;;44.67;16.75;;;2.40;77.40;;;;;;5080024;28;20131;-70
2022/12/04 08:04:27;;;;;;;43.22;15.65;;;2.30;77.00;;;;;;5110533;28;20048;-70
2022/12/04 08:06:55;;;;;;;40.17;15.75;;;2.30;77.10;;;;;;5074880;28;20063;-70
2022/12/04 08:09:22;;;;;;;39.47;15.43;;;2.30;77.40;;;;;;5110650;28;20145;-70
2022/12/04 08:11:49;;;;;;;41.72;16.50;;;2.30;77.20;;;;;;5122782;22;20256;-70
2022/12/04 08:14:17;;;;;;;40.03;15.52;;;2.30;77.30;;;;;;5110734;28;20050;-70
2022/12/04 08:16:44;;;;;;;37.72;14.65;;;2.30;77.40;;;;;;5073501;28;20044;-70
2022/12/04 08:19:12;;;;;;;40.03;15.73;;;2.30;77.50;;;;;;5075005;28;20048;-70
2022/12/04 08:21:40;;;;;;;41.57;16.13;;;2.30;77.20;;;;;;5092115;28;20051;-70
2022/12/04 08:24:08;;;;;;;41.13;16.58;;;2.30;77.20;;;;;;5110483;28;20293;-70
2022/12/04 08:26:37;;;;;;;38.97;14.95;;;2.30;77.40;;;;;;5092091;28;20052;-69
2022/12/04 08:29:04;;;;;;;42.15;16.25;;;2.30;77.50;;;;;;5092482;28;20051;-70
2022/12/04 08:31:35;;;;;;;40.80;16.58;;;2.30;77.50;;;;;;5092143;28;20051;-70
2022/12/04 08:34:05;;;;;;;39.80;15.23;;;2.30;77.70;;;;;;5093433;28;20110;-70
2022/12/04 08:36:33;;;;;;;40.67;14.77;;;2.30;77.60;;;;;;5098854;28;20260;-70
2022/12/04 08:39:00;;;;;;;41.13;15.20;;;2.30;78.00;;;;;;5089967;28;20049;-70
2022/12/04 08:41:27;;;;;;;39.05;14.43;;;2.30;77.80;;;;;;5099443;28;20052;-70
2022/12/04 08:43:56;;;;;;;41.60;15.50;;;2.30;77.70;;;;;;5110437;28;20091;-70
2022/12/04 08:46:27;;;;;;;38.97;15.13;;;2.30;77.60;;;;;;5110161;28;20076;-69
2022/12/04 08:48:56;;;;;;;36.40;14.30;;;2.30;77.80;;;;;;5110325;28;20277;-70
2022/12/04 08:51:25;;;;;;;41.67;15.88;;;2.30;78.00;;;;;;5091673;28;20052;-70
2022/12/04 08:53:55;;;;;;;40.92;15.98;;;2.30;78.20;;;;;;5088377;28;20070;-70
2022/12/04 08:56:22;;;;;;;40.17;15.57;;;2.30;78.20;;;;;;5091233;28;20052;-69
2022/12/04 08:58:49;;;;;;;39.77;15.70;;;2.30;78.30;;;;;;5091834;28;20167;-69
2022/12/04 09:01:16;;;;;;;42.92;15.98;;;2.30;78.20;;;;;;5091600;28;20341;-70
2022/12/04 09:03:44;;;;;;;39.33;15.85;;;2.30;78.10;;;;;;5091785;28;20040;-70
2022/12/04 09:06:14;;;;;;;41.55;15.20;;;2.30;78.20;;;;;;5111545;28;20044;-70
2022/12/04 09:08:41;;;;;;;43.20;16.58;;;2.30;78.40;;;;;;5094270;28;20106;-70
2022/12/04 09:11:10;;;;;;;47.43;18.00;;;2.30;78.30;;;;;;5099261;28;20510;-70
2022/12/04 09:13:38;;;;;;;37.85;15.40;;;2.30;78.30;;;;;;5092072;28;20373;-70
2022/12/04 09:16:07;;;;;;;43.17;16.48;;;2.30;78.70;;;;;;5095131;28;20062;-70
2022/12/04 09:18:35;;;;;;;43.88;15.95;;;2.30;78.70;;;;;;5095363;28;20135;-70
2022/12/04 09:21:04;;;;;;;42.90;14.95;;;2.30;78.70;;;;;;5100031;28;20053;-69
2022/12/04 09:23:33;;;;;;;43.90;16.40;;;2.30;78.80;;;;;;5091509;28;21014;-70
2022/12/04 09:26:01;;;;;;;42.22;15.65;;;2.30;78.90;;;;;;5094072;28;20254;-70
2022/12/04 09:28:28;;;;;;;39.03;13.75;;;2.30;78.90;;;;;;5094892;28;20044;-71
2022/12/04 09:31:00;;;;;;;37.47;15.18;;;2.30;78.90;;;;;;5094377;28;20123;-70
2022/12/04 09:33:27;;;;;;;43.78;15.98;;;2.30;78.90;;;;;;5094892;28;20047;-70
2022/12/04 09:35:54;;;;;;;44.13;16.27;;;2.20;79.20;;;;;;5063313;28;20437;-70
2022/12/04 09:38:22;;;;;;;42.67;16.25;;;2.20;79.10;;;;;;5074611;28;20266;-70
2022/12/04 09:40:59;;;;;;;36.95;13.95;;;2.20;79.00;;;;;;5086411;28;20996;-70
2022/12/04 09:43:33;;;;;;;41.88;16.17;;;2.20;79.30;;;;;;5091639;28;20048;-70
2022/12/04 09:46:09;;;;;;;42.28;15.23;;;2.20;79.40;;;;;;5091238;28;20576;-70
2022/12/04 09:48:40;;;;;;;42.33;15.57;;;2.20;79.40;;;;;;5094775;28;20048;-70
2022/12/04 09:51:17;;;;;;;39.67;15.73;;;2.30;79.40;;;;;;5112879;28;20335;-70
2022/12/04 09:53:48;;;;;;;44.25;16.90;;;2.30;79.60;;;;;;5094478;28;20102;-70
2022/12/04 09:56:19;;;;;;;44.30;14.98;;;2.30;79.70;;;;;;5113261;28;20143;-70
2022/12/04 09:58:50;;;;;;;38.10;14.25;;;2.30;79.80;;;;;;5092950;28;20469;-70
2022/12/04 10:01:22;;;;;;;41.27;14.70;;;2.30;79.70;;;;;;5112791;28;20075;-70
2022/12/04 10:03:50;;;;;;;41.05;15.57;;;2.30;79.80;;;;;;5112766;28;20393;-70
2022/12/04 10:06:21;;;;;;;40.53;15.02;;;2.30;80.00;;;;;;5113044;28;20056;-70
2022/12/04 10:08:55;;;;;;;35.28;13.88;;;2.30;80.10;;;;;;5114310;28;20629;-70
2022/12/04 10:11:32;;;;;;;41.28;15.93;;;2.30;80.00;;;;;;5094336;28;20145;-69
2022/12/04 10:14:14;;;;;;;38.33;13.10;;;2.30;80.00;;;;;;5094697;28;20675;-70
2022/12/04 10:17:04;;;;;;;36.55;14.38;;;2.30;80.00;;;;;;5092497;28;20253;-70
2022/12/04 10:19:39;;;;;;;38.55;13.88;;;2.30;79.80;;;;;;5112284;28;20056;-70
2022/12/04 10:22:16;;;;;;;36.40;14.13;;;2.30;79.70;;;;;;5112873;28;20197;-70
2022/12/04 10:24:47;;;;;;;40.17;15.70;;;2.30;79.80;;;;;;5098822;28;20053;-70
2022/12/04 10:27:22;;;;;;;39.97;14.30;;;2.30;79.70;;;;;;5094189;28;20497;-70
2022/12/04 10:29:54;;;;;;;40.17;15.13;;;2.30;79.70;;;;;;5079158;28;20291;-70
2022/12/04 10:32:25;;;;;;;38.10;14.55;;;2.30;79.80;;;;;;5073407;28;20506;-70
2022/12/04 10:34:55;;;;;;;38.20;14.95;;;2.40;80.10;;;;;;5088347;28;20132;-70
2022/12/04 10:37:23;;;;;;;36.63;13.52;;;2.40;80.00;;;;;;5057975;28;20052;-69
2022/12/04 10:39:54;;;;;;;39.93;15.23;;;2.50;80.00;;;;;;5112459;28;20563;-70
2022/12/04 10:42:31;;;;;;;32.28;13.45;;;2.50;79.90;;;;;;5111470;28;20328;-70
2022/12/04 10:44:58;;;;;;;35.38;12.02;;;2.50;79.80;;;;;;5090792;28;20053;-70
2022/12/04 10:47:26;;;;;;;36.38;13.80;;;2.50;79.80;;;;;;5090680;28;20501;-70
2022/12/04 10:49:59;;;;;;;36.67;14.23;;;2.50;79.80;;;;;;5087643;28;20050;-70
2022/12/04 10:52:26;;;;;;;37.07;13.50;;;2.50;79.80;;;;;;5091771;28;20053;-70
2022/12/04 10:54:57;;;;;;;32.53;13.13;;;2.50;79.70;;;;;;5090636;28;20366;-70
2022/12/04 10:57:35;;;;;;;35.92;12.93;;;2.50;79.70;;;;;;5091756;28;20477;-70
2022/12/04 11:00:02;;;;;;;33.50;13.10;;;2.60;79.70;;;;;;5093588;28;20142;-70
2022/12/04 11:02:33;;;;;;;29.17;11.55;;;2.60;79.80;;;;;;5091993;28;20169;-70
2022/12/04 11:05:01;;;;;;;32.70;12.80;;;2.60;79.80;;;;;;5091635;28;20052;-70
2022/12/04 11:07:31;;;;;;;33.47;13.68;;;2.70;79.70;;;;;;5091235;28;20284;-70
2022/12/04 11:10:02;;;;;;;30.48;12.18;;;2.70;79.80;;;;;;5093389;28;20135;-70
2022/12/04 11:12:31;;;;;;;31.40;13.30;;;2.70;79.70;;;;;;5075953;28;20055;-70
2022/12/04 11:15:03;;;;;;;30.23;12.55;;;2.80;79.80;;;;;;5092849;28;20044;-70
2022/12/04 11:17:30;;;;;;;33.10;12.83;;;2.70;79.70;;;;;;5093407;28;20055;-70
2022/12/04 11:20:01;;;;;;;33.13;12.85;;;2.70;79.60;;;;;;5076473;28;20343;-70
2022/12/04 11:22:28;;;;;;;29.83;12.32;;;2.80;79.60;;;;;;5111842;28;20056;-70
2022/12/04 11:24:57;;;;;;;30.83;12.40;;;2.80;79.70;;;;;;5100047;28;20052;-70
2022/12/04 11:27:30;;;;;;;26.58;10.52;;;2.80;79.60;;;;;;5091297;28;20057;-70
2022/12/04 11:30:01;;;;;;;26.30;10.13;;;2.80;79.50;;;;;;5089254;28;20049;-70
2022/12/04 11:32:32;;;;;;;28.85;12.20;;;2.80;79.50;;;;;;5092857;28;20692;-70
2022/12/04 11:35:12;;;;;;;25.15;9.02;;;2.80;79.50;;;;;;5111316;28;20048;-70
2022/12/04 11:38:05;;;;;;;28.05;11.50;;;2.80;79.70;;;;;;5105564;28;20149;-70
2022/12/04 11:40:32;;;;;;;27.95;10.52;;;2.80;79.40;;;;;;5072286;28;20056;-70
2022/12/04 11:43:04;;;;;;;27.77;10.90;;;2.90;79.60;;;;;;5107053;28;20063;-70
2022/12/04 11:45:32;;;;;;;22.63;8.98;;;2.90;79.40;;;;;;5093014;28;20266;-70
2022/12/04 11:48:01;;;;;;;23.52;9.73;;;2.90;79.20;;;;;;5111507;28;20265;-70
2022/12/04 11:50:39;;;;;;;23.17;9.45;;;2.90;79.10;;;;;;5092698;28;20059;-70
2022/12/04 11:53:15;;;;;;;27.02;9.57;;;2.90;79.00;;;;;;5092662;28;20106;-70
2022/12/04 11:55:59;;;;;;;18.67;8.07;;;2.90;78.80;;;;;;5075537;28;20056;-70
2022/12/04 11:58:51;;;;;;;23.60;8.93;;;2.90;78.60;;;;;;5091447;28;20315;-70
2022/12/04 12:01:34;;;;;;;20.05;8.65;;;2.90;78.50;;;;;;5092915;28;20166;-70
2022/12/04 12:04:16;;;;;;;26.20;9.63;;;2.80;78.70;;;;;;5111037;28;20563;-70
2022/12/04 12:06:56;;;;;;;22.00;9.30;;;2.80;78.70;;;;;;5092845;28;20139;-70
2022/12/04 12:09:33;;;;;;;23.93;9.53;;;2.80;78.60;;;;;;5091795;28;20109;-70
2022/12/04 12:12:07;;;;;;;24.90;10.30;;;2.80;78.70;;;;;;5090125;28;20307;-70
2022/12/04 12:14:43;;;;;;;24.45;10.00;;;2.80;78.70;;;;;;5088964;28;20048;-70
2022/12/04 12:17:20;;;;;;;25.92;11.32;;;2.80;78.90;;;;;;5090889;28;20056;-70
2022/12/04 12:20:07;;;;;;;24.67;8.70;;;2.80;78.80;;;;;;5110796;28;20052;-70
2022/12/04 12:22:54;;;;;;;25.00;9.73;;;2.90;78.80;;;;;;5110594;28;20523;-70
2022/12/04 12:25:26;;;;;;;23.50;9.20;;;2.90;78.90;;;;;;5110587;28;20705;-70
2022/12/04 12:28:16;;;;;;;26.05;8.85;;;2.90;78.80;;;;;;5110819;28;20074;-69
2022/12/04 12:30:58;;;;;;;22.98;8.88;;;2.90;78.90;;;;;;5091865;28;20129;-70
2022/12/04 12:33:31;;;;;;;23.02;9.63;;;2.90;78.90;;;;;;5090722;28;20051;-70
2022/12/04 12:36:03;;;;;;;26.07;10.73;;;2.90;79.10;;;;;;5083145;28;20102;-70
2022/12/04 12:38:35;;;;;;;24.40;9.82;;;2.90;78.90;;;;;;5110836;28;20371;-69
2022/12/04 12:41:05;;;;;;;24.23;9.23;;;2.90;79.00;;;;;;5093448;28;20396;-70
2022/12/04 12:43:36;;;;;;;25.25;9.73;;;2.90;79.00;;;;;;5095717;28;20055;-70
2022/12/04 12:46:10;;;;;;;21.15;8.82;;;3.00;79.10;;;;;;5107563;28;20075;-70
2022/12/04 12:48:45;;;;;;;25.73;9.20;;;3.00;78.90;;;;;;5092594;28;20044;-70
2022/12/04 12:51:25;;;;;;;25.08;9.98;;;3.00;78.90;;;;;;5081293;28;20255;-70
2022/12/04 12:53:55;;;;;;;18.10;6.60;;;3.00;78.90;;;;;;5093428;28;20536;-70
2022/12/04 12:56:30;;;;;;;23.92;10.85;;;3.00;79.00;;;;;;5093795;28;20548;-70
2022/12/04 12:59:03;;;;;;;24.65;8.95;;;3.00;78.70;;;;;;5093016;28;20126;-70
2022/12/04 13:01:39;;;;;;;24.60;8.67;;;3.00;78.80;;;;;;5095487;28;20056;-70
2022/12/04 13:04:12;;;;;;;23.85;10.45;;;3.00;78.80;;;;;;5095433;28;20275;-70
2022/12/04 13:06:47;;;;;;;23.52;9.75;;;3.00;78.70;;;;;;5095150;28;20137;-70
2022/12/04 13:09:24;;;;;;;20.45;7.85;;;3.00;78.70;;;;;;5094777;28;20075;-70